sensor_id;sensor_type;location;lat;lon;timestamp;pressure;altitude;pressure_sealevel;temperature;humidity
12951;BME280;6540;50.858;7.232;2024-01-25T00:00:06;51947.34;;;-142.34;30.20
12951;BME280;6540;50.858;7.232;2024-01-25T00:02:31;51939.28;;;-142.34;30.02
12951;BME280;6540;50.858;7.232;2024-01-25T00:04:56;51898.94;;;-142.34;29.84
12951;BME280;6540;50.858;7.232;2024-01-25T00:07:22;51911.03;;;-142.34;29.53
12951;BME280;6540;50.858;7.232;2024-01-25T00:09:47;51894.88;;;-142.34;28.56
12951;BME280;6540;50.858;7.232;2024-01-25T00:12:12;51907.00;;;-142.34;28.46
12951;BME280;6540;50.858;7.232;2024-01-25T00:14:38;51911.03;;;-142.34;28.56
12951;BME280;6540;50.858;7.232;2024-01-25T00:17:03;51900.94;;;-142.34;29.08
12951;BME280;6540;50.858;7.232;2024-01-25T00:19:29;51878.75;;;-142.34;28.19
12951;BME280;6540;50.858;7.232;2024-01-25T00:21:54;51892.88;;;-142.34;28.24
12951;BME280;6540;50.858;7.232;2024-01-25T00:24:19;51911.03;;;-142.34;29.39
12951;BME280;6540;50.858;7.232;2024-01-25T00:26:45;51943.31;;;-142.34;28.32
12951;BME280;6540;50.858;7.232;2024-01-25T00:29:10;51917.06;;;-142.34;29.26
12951;BME280;6540;50.858;7.232;2024-01-25T00:31:35;51923.13;;;-142.34;29.26
12951;BME280;6540;50.858;7.232;2024-01-25T00:34:03;51931.19;;;-142.34;28.70
12951;BME280;6540;50.858;7.232;2024-01-25T00:36:29;51874.72;;;-142.34;27.96
12951;BME280;6540;50.858;7.232;2024-01-25T00:38:55;51925.16;;;-142.34;29.17
12951;BME280;6540;50.858;7.232;2024-01-25T00:41:20;51872.69;;;-142.34;29.23
12951;BME280;6540;50.858;7.232;2024-01-25T00:43:46;51923.13;;;-142.34;28.84
12951;BME280;6540;50.858;7.232;2024-01-25T00:46:12;51884.81;;;-142.34;29.02
12951;BME280;6540;50.858;7.232;2024-01-25T00:48:38;51894.88;;;-142.34;29.23
12951;BME280;6540;50.858;7.232;2024-01-25T00:51:06;51909.00;;;-142.34;29.75
12951;BME280;6540;50.858;7.232;2024-01-25T00:53:32;51890.84;;;-142.34;28.52
12951;BME280;6540;50.858;7.232;2024-01-25T00:55:58;51907.00;;;-142.34;29.74
12951;BME280;6540;50.858;7.232;2024-01-25T00:58:24;51935.25;;;-142.34;29.89
12951;BME280;6540;50.858;7.232;2024-01-25T01:00:50;51909.00;;;-142.34;29.60
12951;BME280;6540;50.858;7.232;2024-01-25T01:03:18;51896.91;;;-142.34;28.84
12951;BME280;6540;50.858;7.232;2024-01-25T01:05:43;51927.16;;;-142.34;29.31
12951;BME280;6540;50.858;7.232;2024-01-25T01:08:09;51907.00;;;-142.34;28.99
12951;BME280;6540;50.858;7.232;2024-01-25T01:10:35;51923.13;;;-142.34;29.34
12951;BME280;6540;50.858;7.232;2024-01-25T01:13:00;51904.97;;;-142.34;30.09
12951;BME280;6540;50.858;7.232;2024-01-25T01:15:26;51894.88;;;-142.34;29.48
12951;BME280;6540;50.858;7.232;2024-01-25T01:17:51;51935.25;;;-142.34;29.22
12951;BME280;6540;50.858;7.232;2024-01-25T01:20:16;51921.13;;;-142.34;28.42
12951;BME280;6540;50.858;7.232;2024-01-25T01:22:41;51892.88;;;-142.34;28.60
12951;BME280;6540;50.858;7.232;2024-01-25T01:25:07;51902.97;;;-142.34;29.24
12951;BME280;6540;50.858;7.232;2024-01-25T01:27:32;51890.84;;;-142.34;28.74
12951;BME280;6540;50.858;7.232;2024-01-25T01:29:58;51892.88;;;-142.34;28.60
12951;BME280;6540;50.858;7.232;2024-01-25T01:32:23;51923.13;;;-142.34;29.29
12951;BME280;6540;50.858;7.232;2024-01-25T01:34:49;51878.75;;;-142.34;29.71
12951;BME280;6540;50.858;7.232;2024-01-25T01:37:14;51886.81;;;-142.34;28.95
12951;BME280;6540;50.858;7.232;2024-01-25T01:39:39;51890.84;;;-142.34;28.96
12951;BME280;6540;50.858;7.232;2024-01-25T01:42:05;51878.75;;;-142.34;29.51
12951;BME280;6540;50.858;7.232;2024-01-25T01:44:30;51911.03;;;-142.34;29.00
12951;BME280;6540;50.858;7.232;2024-01-25T01:46:55;51909.00;;;-142.34;29.03
12951;BME280;6540;50.858;7.232;2024-01-25T01:49:21;51886.81;;;-142.34;28.88
12951;BME280;6540;50.858;7.232;2024-01-25T01:51:49;51894.88;;;-142.34;29.90
12951;BME280;6540;50.858;7.232;2024-01-25T01:54:15;51915.06;;;-142.34;29.75
12951;BME280;6540;50.858;7.232;2024-01-25T01:56:40;51886.81;;;-142.34;27.92
12951;BME280;6540;50.858;7.232;2024-01-25T01:59:10;51864.63;;;-142.34;27.68
12951;BME280;6540;50.858;7.232;2024-01-25T02:01:36;51896.91;;;-142.34;29.10
12951;BME280;6540;50.858;7.232;2024-01-25T02:04:02;51919.09;;;-142.34;29.68
12951;BME280;6540;50.858;7.232;2024-01-25T02:06:28;51919.09;;;-142.34;28.43
12951;BME280;6540;50.858;7.232;2024-01-25T02:08:53;51927.16;;;-142.34;28.70
12951;BME280;6540;50.858;7.232;2024-01-25T02:11:19;51882.78;;;-142.34;28.37
12951;BME280;6540;50.858;7.232;2024-01-25T02:13:45;51915.06;;;-142.34;29.13
12951;BME280;6540;50.858;7.232;2024-01-25T02:16:12;51890.84;;;-142.34;28.66
12951;BME280;6540;50.858;7.232;2024-01-25T02:18:40;51882.78;;;-142.34;28.39
12951;BME280;6540;50.858;7.232;2024-01-25T02:21:06;51902.97;;;-142.34;28.44
12951;BME280;6540;50.858;7.232;2024-01-25T02:23:31;51878.75;;;-142.34;27.83
12951;BME280;6540;50.858;7.232;2024-01-25T02:25:59;51886.81;;;-142.34;28.01
12951;BME280;6540;50.858;7.232;2024-01-25T02:28:27;51894.88;;;-142.34;27.65
12951;BME280;6540;50.858;7.232;2024-01-25T02:30:53;51919.09;;;-142.34;27.88
12951;BME280;6540;50.858;7.232;2024-01-25T02:33:18;51902.97;;;-142.34;28.08
12951;BME280;6540;50.858;7.232;2024-01-25T02:35:44;51898.94;;;-142.34;27.61
12951;BME280;6540;50.858;7.232;2024-01-25T02:38:09;51896.91;;;-142.34;27.73
12951;BME280;6540;50.858;7.232;2024-01-25T02:40:34;51882.78;;;-142.34;28.27
12951;BME280;6540;50.858;7.232;2024-01-25T02:43:00;51870.69;;;-142.34;27.96
12951;BME280;6540;50.858;7.232;2024-01-25T02:45:25;51874.72;;;-142.34;27.73
12951;BME280;6540;50.858;7.232;2024-01-25T02:47:51;51876.72;;;-142.34;27.43
12951;BME280;6540;50.858;7.232;2024-01-25T02:50:16;51890.84;;;-142.34;27.88
12951;BME280;6540;50.858;7.232;2024-01-25T02:52:41;51870.69;;;-142.34;28.06
12951;BME280;6540;50.858;7.232;2024-01-25T02:55:07;51882.78;;;-142.34;27.27
12951;BME280;6540;50.858;7.232;2024-01-25T02:57:33;51830.34;;;-142.34;27.85
12951;BME280;6540;50.858;7.232;2024-01-25T02:59:58;51890.84;;;-142.34;28.10
12951;BME280;6540;50.858;7.232;2024-01-25T03:02:24;51911.03;;;-142.34;28.42
12951;BME280;6540;50.858;7.232;2024-01-25T03:04:49;51909.00;;;-142.34;28.12
12951;BME280;6540;50.858;7.232;2024-01-25T03:07:15;51842.44;;;-142.34;27.80
12951;BME280;6540;50.858;7.232;2024-01-25T03:09:40;51892.88;;;-142.34;27.51
12951;BME280;6540;50.858;7.232;2024-01-25T03:12:06;51868.66;;;-142.34;27.72
12951;BME280;6540;50.858;7.232;2024-01-25T03:14:31;51858.56;;;-142.34;27.78
12951;BME280;6540;50.858;7.232;2024-01-25T03:16:57;51896.91;;;-142.34;27.60
12951;BME280;6540;50.858;7.232;2024-01-25T03:19:26;51882.78;;;-142.34;27.29
12951;BME280;6540;50.858;7.232;2024-01-25T03:21:52;51915.06;;;-142.34;27.58
12951;BME280;6540;50.858;7.232;2024-01-25T03:24:17;51886.81;;;-142.34;27.78
12951;BME280;6540;50.858;7.232;2024-01-25T03:26:43;51892.88;;;-142.34;28.19
12951;BME280;6540;50.858;7.232;2024-01-25T03:29:08;51874.72;;;-142.34;27.43
12951;BME280;6540;50.858;7.232;2024-01-25T03:31:33;51919.09;;;-142.34;27.56
12951;BME280;6540;50.858;7.232;2024-01-25T03:34:01;51886.81;;;-142.34;27.83
12951;BME280;6540;50.858;7.232;2024-01-25T03:36:26;51890.84;;;-142.34;27.70
12951;BME280;6540;50.858;7.232;2024-01-25T03:38:52;51850.50;;;-142.34;27.90
12951;BME280;6540;50.858;7.232;2024-01-25T03:41:17;51876.72;;;-142.34;28.13
12951;BME280;6540;50.858;7.232;2024-01-25T03:43:43;51868.66;;;-142.34;28.07
12951;BME280;6540;50.858;7.232;2024-01-25T03:46:10;51886.81;;;-142.34;27.78
12951;BME280;6540;50.858;7.232;2024-01-25T03:48:35;51894.88;;;-142.34;27.63
12951;BME280;6540;50.858;7.232;2024-01-25T03:51:00;51941.28;;;-142.34;27.67
12951;BME280;6540;50.858;7.232;2024-01-25T03:53:26;51907.00;;;-142.34;27.75
12951;BME280;6540;50.858;7.232;2024-01-25T03:55:54;51955.41;;;-142.34;27.91
12951;BME280;6540;50.858;7.232;2024-01-25T03:58:20;51880.78;;;-142.34;27.70
12951;BME280;6540;50.858;7.232;2024-01-25T04:00:45;51870.69;;;-142.34;27.80
12951;BME280;6540;50.858;7.232;2024-01-25T04:03:11;51866.66;;;-142.34;28.36
12951;BME280;6540;50.858;7.232;2024-01-25T04:05:39;51907.00;;;-142.34;27.91
12951;BME280;6540;50.858;7.232;2024-01-25T04:08:07;51937.25;;;-142.34;27.41
12951;BME280;6540;50.858;7.232;2024-01-25T04:10:33;51915.06;;;-142.34;28.48
12951;BME280;6540;50.858;7.232;2024-01-25T04:13:02;51892.88;;;-142.34;27.66
12951;BME280;6540;50.858;7.232;2024-01-25T04:15:29;51888.84;;;-142.34;28.10
12951;BME280;6540;50.858;7.232;2024-01-25T04:17:55;51902.97;;;-142.34;27.59
12951;BME280;6540;50.858;7.232;2024-01-25T04:20:21;51880.78;;;-142.34;28.16
12951;BME280;6540;50.858;7.232;2024-01-25T04:22:46;51919.09;;;-142.34;27.91
12951;BME280;6540;50.858;7.232;2024-01-25T04:25:12;51913.03;;;-142.34;27.34
12951;BME280;6540;50.858;7.232;2024-01-25T04:27:38;51909.00;;;-142.34;27.58
12951;BME280;6540;50.858;7.232;2024-01-25T04:30:07;51886.81;;;-142.34;28.12
12951;BME280;6540;50.858;7.232;2024-01-25T04:32:33;51902.97;;;-142.34;28.60
12951;BME280;6540;50.858;7.232;2024-01-25T04:34:58;51919.09;;;-142.34;27.81
12951;BME280;6540;50.858;7.232;2024-01-25T04:37:24;51898.94;;;-142.34;28.15
12951;BME280;6540;50.858;7.232;2024-01-25T04:39:49;51931.19;;;-142.34;28.14
12951;BME280;6540;50.858;7.232;2024-01-25T04:42:14;51947.34;;;-142.34;27.82
12951;BME280;6540;50.858;7.232;2024-01-25T04:44:39;51915.06;;;-142.34;27.91
12951;BME280;6540;50.858;7.232;2024-01-25T04:47:08;51904.97;;;-142.34;28.31
12951;BME280;6540;50.858;7.232;2024-01-25T04:49:33;51931.19;;;-142.34;27.70
12951;BME280;6540;50.858;7.232;2024-01-25T04:51:59;51945.31;;;-142.34;27.79
12951;BME280;6540;50.858;7.232;2024-01-25T04:54:24;51911.03;;;-142.34;27.99
12951;BME280;6540;50.858;7.232;2024-01-25T04:56:49;51925.16;;;-142.34;27.75
12951;BME280;6540;50.858;7.232;2024-01-25T04:59:15;51931.19;;;-142.34;28.03
12951;BME280;6540;50.858;7.232;2024-01-25T05:01:43;51894.88;;;-142.34;28.14
12951;BME280;6540;50.858;7.232;2024-01-25T05:04:09;51923.13;;;-142.34;28.10
12951;BME280;6540;50.858;7.232;2024-01-25T05:06:34;51931.19;;;-142.34;28.22
12951;BME280;6540;50.858;7.232;2024-01-25T05:09:00;51894.88;;;-142.34;27.61
12951;BME280;6540;50.858;7.232;2024-01-25T05:11:29;51890.84;;;-142.34;27.73
12951;BME280;6540;50.858;7.232;2024-01-25T05:13:54;51915.06;;;-142.34;27.90
12951;BME280;6540;50.858;7.232;2024-01-25T05:16:19;51933.22;;;-142.34;27.68
12951;BME280;6540;50.858;7.232;2024-01-25T05:18:45;51947.34;;;-142.34;28.08
12951;BME280;6540;50.858;7.232;2024-01-25T05:21:10;51919.09;;;-142.34;28.12
12951;BME280;6540;50.858;7.232;2024-01-25T05:23:35;51909.00;;;-142.34;27.99
12951;BME280;6540;50.858;7.232;2024-01-25T05:26:01;51931.19;;;-142.34;28.05
12951;BME280;6540;50.858;7.232;2024-01-25T05:28:29;51898.94;;;-142.34;28.33
12951;BME280;6540;50.858;7.232;2024-01-25T05:30:54;51911.03;;;-142.34;27.95
12951;BME280;6540;50.858;7.232;2024-01-25T05:33:19;51923.13;;;-142.34;27.54
12951;BME280;6540;50.858;7.232;2024-01-25T05:35:45;51917.06;;;-142.34;27.89
12951;BME280;6540;50.858;7.232;2024-01-25T05:38:10;51919.09;;;-142.34;27.88
12951;BME280;6540;50.858;7.232;2024-01-25T05:40:36;51911.03;;;-142.34;27.93
12951;BME280;6540;50.858;7.232;2024-01-25T05:43:04;51939.28;;;-142.34;27.60
12951;BME280;6540;50.858;7.232;2024-01-25T05:45:30;51931.19;;;-142.34;27.82
12951;BME280;6540;50.858;7.232;2024-01-25T05:47:55;51915.06;;;-142.34;27.48
12951;BME280;6540;50.858;7.232;2024-01-25T05:50:20;51913.03;;;-142.34;27.66
12951;BME280;6540;50.858;7.232;2024-01-25T05:52:46;51923.13;;;-142.34;27.88
12951;BME280;6540;50.858;7.232;2024-01-25T05:55:11;51919.09;;;-142.34;27.92
12951;BME280;6540;50.858;7.232;2024-01-25T05:57:39;51921.13;;;-142.34;27.64
12951;BME280;6540;50.858;7.232;2024-01-25T06:00:04;51894.88;;;-142.34;27.67
12951;BME280;6540;50.858;7.232;2024-01-25T06:02:30;51933.22;;;-142.34;27.78
12951;BME280;6540;50.858;7.232;2024-01-25T06:04:56;51919.09;;;-142.34;27.46
12951;BME280;6540;50.858;7.232;2024-01-25T06:07:23;51959.44;;;-142.34;27.68
12951;BME280;6540;50.858;7.232;2024-01-25T06:09:48;51943.31;;;-142.34;27.50
12951;BME280;6540;50.858;7.232;2024-01-25T06:12:14;51923.13;;;-142.34;27.74
12951;BME280;6540;50.858;7.232;2024-01-25T06:14:39;51898.94;;;-142.34;28.07
12951;BME280;6540;50.858;7.232;2024-01-25T06:17:04;51919.09;;;-142.34;27.85
12951;BME280;6540;50.858;7.232;2024-01-25T06:19:30;51955.41;;;-142.34;27.88
12951;BME280;6540;50.858;7.232;2024-01-25T06:21:55;51925.16;;;-142.34;27.50
12951;BME280;6540;50.858;7.232;2024-01-25T06:24:21;51931.19;;;-142.34;27.50
12951;BME280;6540;50.858;7.232;2024-01-25T06:26:46;51951.38;;;-142.34;27.83
12951;BME280;6540;50.858;7.232;2024-01-25T06:29:11;51935.25;;;-142.34;27.86
12951;BME280;6540;50.858;7.232;2024-01-25T06:31:43;51955.41;;;-142.34;27.65
12951;BME280;6540;50.858;7.232;2024-01-25T06:34:09;51939.28;;;-142.34;27.97
12951;BME280;6540;50.858;7.232;2024-01-25T06:36:34;51957.44;;;-142.34;28.27
12951;BME280;6540;50.858;7.232;2024-01-25T06:39:00;51961.47;;;-142.34;28.08
12951;BME280;6540;50.858;7.232;2024-01-25T06:41:25;51939.28;;;-142.34;27.41
12951;BME280;6540;50.858;7.232;2024-01-25T06:43:50;51935.25;;;-142.34;27.71
12951;BME280;6540;50.858;7.232;2024-01-25T06:46:16;51939.28;;;-142.34;27.97
12951;BME280;6540;50.858;7.232;2024-01-25T06:48:41;51937.25;;;-142.34;28.17
12951;BME280;6540;50.858;7.232;2024-01-25T06:51:10;51913.03;;;-142.34;28.02
12951;BME280;6540;50.858;7.232;2024-01-25T06:53:35;51878.75;;;-142.34;27.22
12951;BME280;6540;50.858;7.232;2024-01-25T06:56:00;51919.09;;;-142.34;27.42
12951;BME280;6540;50.858;7.232;2024-01-25T06:58:25;51943.31;;;-142.34;27.17
12951;BME280;6540;50.858;7.232;2024-01-25T07:00:51;51943.31;;;-142.34;26.73
12951;BME280;6540;50.858;7.232;2024-01-25T07:03:18;51941.28;;;-142.34;27.20
12951;BME280;6540;50.858;7.232;2024-01-25T07:05:43;51941.28;;;-142.34;27.67
12951;BME280;6540;50.858;7.232;2024-01-25T07:08:08;51931.19;;;-142.34;27.26
12951;BME280;6540;50.858;7.232;2024-01-25T07:10:38;51921.13;;;-142.34;27.37
12951;BME280;6540;50.858;7.232;2024-01-25T07:13:03;51935.25;;;-142.34;27.22
12951;BME280;6540;50.858;7.232;2024-01-25T07:15:29;51917.06;;;-142.34;27.27
12951;BME280;6540;50.858;7.232;2024-01-25T07:17:54;51907.00;;;-142.34;27.16
12951;BME280;6540;50.858;7.232;2024-01-25T07:20:19;51933.22;;;-142.34;27.61
12951;BME280;6540;50.858;7.232;2024-01-25T07:22:45;51939.28;;;-142.34;27.13
12951;BME280;6540;50.858;7.232;2024-01-25T07:25:10;51947.34;;;-142.34;26.81
12951;BME280;6540;50.858;7.232;2024-01-25T07:27:36;51939.28;;;-142.34;26.91
12951;BME280;6540;50.858;7.232;2024-01-25T07:30:01;51935.25;;;-142.34;26.97
12951;BME280;6540;50.858;7.232;2024-01-25T07:32:27;51927.16;;;-142.34;27.12
12951;BME280;6540;50.858;7.232;2024-01-25T07:34:52;51911.03;;;-142.34;27.62
12951;BME280;6540;50.858;7.232;2024-01-25T07:37:19;51919.09;;;-142.34;28.14
12951;BME280;6540;50.858;7.232;2024-01-25T07:39:45;51907.00;;;-142.34;27.54
12951;BME280;6540;50.858;7.232;2024-01-25T07:42:11;51927.16;;;-142.34;27.21
12951;BME280;6540;50.858;7.232;2024-01-25T07:44:37;51929.19;;;-142.34;27.17
12951;BME280;6540;50.858;7.232;2024-01-25T07:47:12;51927.16;;;-142.34;26.80
12951;BME280;6540;50.858;7.232;2024-01-25T07:49:40;51943.31;;;-142.34;27.02
12951;BME280;6540;50.858;7.232;2024-01-25T07:52:05;51947.34;;;-142.34;27.12
12951;BME280;6540;50.858;7.232;2024-01-25T07:54:31;51947.34;;;-142.34;27.66
12951;BME280;6540;50.858;7.232;2024-01-25T07:56:56;51925.16;;;-142.34;27.51
12951;BME280;6540;50.858;7.232;2024-01-25T07:59:21;51915.06;;;-142.34;27.74
12951;BME280;6540;50.858;7.232;2024-01-25T08:01:47;51909.00;;;-142.34;27.52
12951;BME280;6540;50.858;7.232;2024-01-25T08:04:12;51935.25;;;-142.34;27.75
12951;BME280;6540;50.858;7.232;2024-01-25T08:06:37;51911.03;;;-142.34;28.07
12951;BME280;6540;50.858;7.232;2024-01-25T08:09:02;51947.34;;;-142.34;27.87
12951;BME280;6540;50.858;7.232;2024-01-25T08:11:28;51939.28;;;-142.34;28.05
12951;BME280;6540;50.858;7.232;2024-01-25T08:13:53;51923.13;;;-142.34;28.39
12951;BME280;6540;50.858;7.232;2024-01-25T08:16:18;51947.34;;;-142.34;28.37
12951;BME280;6540;50.858;7.232;2024-01-25T08:18:45;51935.25;;;-142.34;28.88
12951;BME280;6540;50.858;7.232;2024-01-25T08:21:11;51971.53;;;-142.34;28.29
12951;BME280;6540;50.858;7.232;2024-01-25T08:23:40;51919.09;;;-142.34;28.15
12951;BME280;6540;50.858;7.232;2024-01-25T08:26:05;51884.81;;;-142.34;27.95
12951;BME280;6540;50.858;7.232;2024-01-25T08:28:34;51919.09;;;-142.34;28.86
12951;BME280;6540;50.858;7.232;2024-01-25T08:31:01;51949.34;;;-142.34;29.20
12951;BME280;6540;50.858;7.232;2024-01-25T08:33:26;51919.09;;;-142.34;28.56
12951;BME280;6540;50.858;7.232;2024-01-25T08:35:51;51947.34;;;-142.34;27.99
12951;BME280;6540;50.858;7.232;2024-01-25T08:38:17;51949.34;;;-142.34;27.52
12951;BME280;6540;50.858;7.232;2024-01-25T08:40:42;51941.28;;;-142.34;27.95
12951;BME280;6540;50.858;7.232;2024-01-25T08:43:08;51927.16;;;-142.34;28.00
12951;BME280;6540;50.858;7.232;2024-01-25T08:45:33;51939.28;;;-142.34;28.69
12951;BME280;6540;50.858;7.232;2024-01-25T08:48:07;51935.25;;;-142.34;26.90
12951;BME280;6540;50.858;7.232;2024-01-25T08:50:34;51929.19;;;-142.34;27.45
12951;BME280;6540;50.858;7.232;2024-01-25T08:52:59;51902.97;;;-142.34;26.83
12951;BME280;6540;50.858;7.232;2024-01-25T08:55:25;51939.28;;;-142.34;27.71
12951;BME280;6540;50.858;7.232;2024-01-25T08:57:50;51931.19;;;-142.34;28.52
12951;BME280;6540;50.858;7.232;2024-01-25T09:00:16;51927.16;;;-142.34;28.76
12951;BME280;6540;50.858;7.232;2024-01-25T09:02:41;51890.84;;;-142.34;28.49
12951;BME280;6540;50.858;7.232;2024-01-25T09:05:10;51919.09;;;-142.34;27.36
12951;BME280;6540;50.858;7.232;2024-01-25T09:07:35;51900.94;;;-142.34;27.23
12951;BME280;6540;50.858;7.232;2024-01-25T09:10:01;51923.13;;;-142.34;26.91
12951;BME280;6540;50.858;7.232;2024-01-25T09:12:26;51929.19;;;-142.34;27.37
12951;BME280;6540;50.858;7.232;2024-01-25T09:14:52;51917.06;;;-142.34;27.44
12951;BME280;6540;50.858;7.232;2024-01-25T09:17:17;51900.94;;;-142.34;27.12
12951;BME280;6540;50.858;7.232;2024-01-25T09:19:49;51894.88;;;-142.34;26.69
12951;BME280;6540;50.858;7.232;2024-01-25T09:22:20;51898.94;;;-142.34;27.87
12951;BME280;6540;50.858;7.232;2024-01-25T09:24:46;51921.13;;;-142.34;28.41
12951;BME280;6540;50.858;7.232;2024-01-25T09:27:12;51886.81;;;-142.34;27.58
12951;BME280;6540;50.858;7.232;2024-01-25T09:29:41;51915.06;;;-142.34;27.93
12951;BME280;6540;50.858;7.232;2024-01-25T09:32:07;51898.94;;;-142.34;27.34
12951;BME280;6540;50.858;7.232;2024-01-25T09:34:36;51911.03;;;-142.34;27.54
12951;BME280;6540;50.858;7.232;2024-01-25T09:37:02;51870.69;;;-142.34;26.75
12951;BME280;6540;50.858;7.232;2024-01-25T09:39:30;51892.88;;;-142.34;26.91
12951;BME280;6540;50.858;7.232;2024-01-25T09:41:56;51937.25;;;-142.34;28.21
12951;BME280;6540;50.858;7.232;2024-01-25T09:44:22;51882.78;;;-142.34;27.51
12951;BME280;6540;50.858;7.232;2024-01-25T09:46:47;51860.59;;;-142.34;27.29
12951;BME280;6540;50.858;7.232;2024-01-25T09:49:16;51852.53;;;-142.34;27.19
12951;BME280;6540;50.858;7.232;2024-01-25T09:51:42;51870.69;;;-142.34;27.07
12951;BME280;6540;50.858;7.232;2024-01-25T09:54:08;51898.94;;;-142.34;27.22
12951;BME280;6540;50.858;7.232;2024-01-25T09:56:34;51868.66;;;-142.34;29.34
12951;BME280;6540;50.858;7.232;2024-01-25T09:59:00;51919.09;;;-142.34;29.02
12951;BME280;6540;50.858;7.232;2024-01-25T10:01:26;51866.66;;;-142.34;28.28
12951;BME280;6540;50.858;7.232;2024-01-25T10:03:52;51898.94;;;-142.34;27.53
12951;BME280;6540;50.858;7.232;2024-01-25T10:06:17;51894.88;;;-142.34;28.08
12951;BME280;6540;50.858;7.232;2024-01-25T10:08:43;51870.69;;;-142.34;27.99
12951;BME280;6540;50.858;7.232;2024-01-25T10:11:09;51907.00;;;-142.34;28.67
12951;BME280;6540;50.858;7.232;2024-01-25T10:13:49;51923.13;;;-142.34;28.20
12951;BME280;6540;50.858;7.232;2024-01-25T10:16:19;51904.97;;;-142.34;27.87
12951;BME280;6540;50.858;7.232;2024-01-25T10:18:48;51896.91;;;-142.34;28.03
12951;BME280;6540;50.858;7.232;2024-01-25T10:21:15;51898.94;;;-142.34;28.00
12951;BME280;6540;50.858;7.232;2024-01-25T10:23:41;51868.66;;;-142.34;27.88
12951;BME280;6540;50.858;7.232;2024-01-25T10:26:08;51907.00;;;-142.34;28.44
12951;BME280;6540;50.858;7.232;2024-01-25T10:28:34;51890.84;;;-142.34;28.88
12951;BME280;6540;50.858;7.232;2024-01-25T10:31:01;51882.78;;;-142.34;27.79
12951;BME280;6540;50.858;7.232;2024-01-25T10:33:27;51878.75;;;-142.34;28.90
12951;BME280;6540;50.858;7.232;2024-01-25T10:35:57;51876.72;;;-142.34;28.59
12951;BME280;6540;50.858;7.232;2024-01-25T10:38:33;51886.81;;;-142.34;30.08
12951;BME280;6540;50.858;7.232;2024-01-25T10:41:01;51880.78;;;-142.34;28.27
12951;BME280;6540;50.858;7.232;2024-01-25T10:43:27;51880.78;;;-142.34;27.78
12951;BME280;6540;50.858;7.232;2024-01-25T10:45:53;51864.63;;;-142.34;28.23
12951;BME280;6540;50.858;7.232;2024-01-25T10:48:22;51872.69;;;-142.34;28.00
12951;BME280;6540;50.858;7.232;2024-01-25T10:50:48;51913.03;;;-142.34;27.90
12951;BME280;6540;50.858;7.232;2024-01-25T10:53:16;51842.44;;;-142.34;27.40
12951;BME280;6540;50.858;7.232;2024-01-25T10:55:42;51888.84;;;-142.34;28.02
12951;BME280;6540;50.858;7.232;2024-01-25T10:58:08;51923.13;;;-142.34;29.81
12951;BME280;6540;50.858;7.232;2024-01-25T11:00:36;51898.94;;;-142.34;27.50
12951;BME280;6540;50.858;7.232;2024-01-25T11:03:02;51866.66;;;-142.34;27.46
12951;BME280;6540;50.858;7.232;2024-01-25T11:05:30;51890.84;;;-142.34;28.73
12951;BME280;6540;50.858;7.232;2024-01-25T11:07:58;51919.09;;;-142.34;28.29
12951;BME280;6540;50.858;7.232;2024-01-25T11:10:27;51878.75;;;-142.34;27.18
12951;BME280;6540;50.858;7.232;2024-01-25T11:13:00;51882.78;;;-142.34;27.63
12951;BME280;6540;50.858;7.232;2024-01-25T11:15:36;51854.53;;;-142.34;26.83
12951;BME280;6540;50.858;7.232;2024-01-25T11:18:03;51864.63;;;-142.34;27.08
12951;BME280;6540;50.858;7.232;2024-01-25T11:20:32;51904.97;;;-142.34;28.61
12951;BME280;6540;50.858;7.232;2024-01-25T11:23:02;51858.56;;;-142.34;27.08
12951;BME280;6540;50.858;7.232;2024-01-25T11:25:30;51870.69;;;-142.34;27.23
12951;BME280;6540;50.858;7.232;2024-01-25T11:27:56;51880.78;;;-142.34;28.27
12951;BME280;6540;50.858;7.232;2024-01-25T11:30:21;51876.72;;;-142.34;27.84
12951;BME280;6540;50.858;7.232;2024-01-25T11:32:47;51894.88;;;-142.34;27.32
12951;BME280;6540;50.858;7.232;2024-01-25T11:35:14;51884.81;;;-142.34;26.90
12951;BME280;6540;50.858;7.232;2024-01-25T11:37:49;51886.81;;;-142.34;27.61
12951;BME280;6540;50.858;7.232;2024-01-25T11:40:17;51872.69;;;-142.34;27.22
12951;BME280;6540;50.858;7.232;2024-01-25T11:42:45;51850.50;;;-142.34;26.82
12951;BME280;6540;50.858;7.232;2024-01-25T11:45:12;51862.63;;;-142.34;26.63
12951;BME280;6540;50.858;7.232;2024-01-25T11:47:42;51868.66;;;-142.34;26.71
12951;BME280;6540;50.858;7.232;2024-01-25T11:50:10;51848.50;;;-142.34;26.17
12951;BME280;6540;50.858;7.232;2024-01-25T11:52:36;51848.50;;;-142.34;26.33
12951;BME280;6540;50.858;7.232;2024-01-25T11:55:03;51822.25;;;-142.34;26.88
12951;BME280;6540;50.858;7.232;2024-01-25T11:57:35;51826.31;;;-142.34;26.04
12951;BME280;6540;50.858;7.232;2024-01-25T12:00:01;51820.25;;;-142.34;25.91
12951;BME280;6540;50.858;7.232;2024-01-25T12:02:27;51832.34;;;-142.34;25.47
12951;BME280;6540;50.858;7.232;2024-01-25T12:04:55;51814.19;;;-142.34;26.51
12951;BME280;6540;50.858;7.232;2024-01-25T12:07:21;51862.63;;;-142.34;26.69
12951;BME280;6540;50.858;7.232;2024-01-25T12:10:01;51874.72;;;-142.34;26.60
12951;BME280;6540;50.858;7.232;2024-01-25T12:12:27;51870.69;;;-142.34;25.87
12951;BME280;6540;50.858;7.232;2024-01-25T12:15:05;51870.69;;;-142.34;26.19
12951;BME280;6540;50.858;7.232;2024-01-25T12:17:30;51856.56;;;-142.34;25.90
12951;BME280;6540;50.858;7.232;2024-01-25T12:19:57;51866.66;;;-142.34;26.94
12951;BME280;6540;50.858;7.232;2024-01-25T12:22:22;51838.41;;;-142.34;27.15
12951;BME280;6540;50.858;7.232;2024-01-25T12:24:48;51866.66;;;-142.34;26.42
12951;BME280;6540;50.858;7.232;2024-01-25T12:27:17;51878.75;;;-142.34;26.78
12951;BME280;6540;50.858;7.232;2024-01-25T12:29:42;51858.56;;;-142.34;27.51
12951;BME280;6540;50.858;7.232;2024-01-25T12:32:10;51892.88;;;-142.34;27.35
12951;BME280;6540;50.858;7.232;2024-01-25T12:34:36;51878.75;;;-142.34;27.75
12951;BME280;6540;50.858;7.232;2024-01-25T12:37:03;51890.84;;;-142.34;28.02
12951;BME280;6540;50.858;7.232;2024-01-25T12:39:28;51898.94;;;-142.34;27.58
12951;BME280;6540;50.858;7.232;2024-01-25T12:41:54;51874.72;;;-142.34;26.37
12951;BME280;6540;50.858;7.232;2024-01-25T12:44:19;51896.91;;;-142.34;26.71